sensor_id;sensor_type;location;lat;lon;timestamp;temperature;humidity
21176;DHT22;10746;50.178;8.186;2023-02-03T00:02:05;6.20;99.90
21176;DHT22;10746;50.178;8.186;2023-02-03T00:04:34;6.20;99.90
21176;DHT22;10746;50.178;8.186;2023-02-03T00:07:00;6.20;99.90
21176;DHT22;10746;50.178;8.186;2023-02-03T00:09:27;6.20;99.90
21176;DHT22;10746;50.178;8.186;2023-02-03T00:11:55;6.20;99.90
21176;DHT22;10746;50.178;8.186;2023-02-03T00:14:21;6.10;99.90
21176;DHT22;10746;50.178;8.186;2023-02-03T00:16:48;6.00;99.90
21176;DHT22;10746;50.178;8.186;2023-02-03T00:19:15;6.00;99.90
21176;DHT22;10746;50.178;8.186;2023-02-03T00:21:43;6.00;99.90
21176;DHT22;10746;50.178;8.186;2023-02-03T00:24:10;6.00;99.90
21176;DHT22;10746;50.178;8.186;2023-02-03T00:26:40;6.00;99.90
21176;DHT22;10746;50.178;8.186;2023-02-03T00:29:07;5.90;99.90
21176;DHT22;10746;50.178;8.186;2023-02-03T00:31:34;6.00;99.90
21176;DHT22;10746;50.178;8.186;2023-02-03T00:34:01;6.10;99.90
21176;DHT22;10746;50.178;8.186;2023-02-03T00:36:28;6.00;99.90
21176;DHT22;10746;50.178;8.186;2023-02-03T00:38:56;5.90;99.90
21176;DHT22;10746;50.178;8.186;2023-02-03T00:41:23;5.90;99.90
21176;DHT22;10746;50.178;8.186;2023-02-03T00:43:53;5.80;99.90
21176;DHT22;10746;50.178;8.186;2023-02-03T00:46:20;5.80;99.90
21176;DHT22;10746;50.178;8.186;2023-02-03T00:48:47;5.90;99.90
21176;DHT22;10746;50.178;8.186;2023-02-03T00:51:14;5.90;99.90
21176;DHT22;10746;50.178;8.186;2023-02-03T00:53:41;5.90;99.90
21176;DHT22;10746;50.178;8.186;2023-02-03T00:56:09;6.00;99.90
21176;DHT22;10746;50.178;8.186;2023-02-03T00:58:37;5.90;99.90
21176;DHT22;10746;50.178;8.186;2023-02-03T01:01:04;6.00;99.90
21176;DHT22;10746;50.178;8.186;2023-02-03T01:03:31;6.00;99.90
21176;DHT22;10746;50.178;8.186;2023-02-03T01:06:08;5.90;99.90
21176;DHT22;10746;50.178;8.186;2023-02-03T01:08:34;5.80;99.90
21176;DHT22;10746;50.178;8.186;2023-02-03T01:11:05;5.90;99.90
21176;DHT22;10746;50.178;8.186;2023-02-03T01:13:34;5.90;99.90
21176;DHT22;10746;50.178;8.186;2023-02-03T01:16:01;5.90;99.90
21176;DHT22;10746;50.178;8.186;2023-02-03T01:18:28;5.90;99.90
21176;DHT22;10746;50.178;8.186;2023-02-03T01:20:55;5.90;99.90
21176;DHT22;10746;50.178;8.186;2023-02-03T01:23:21;5.90;99.90
21176;DHT22;10746;50.178;8.186;2023-02-03T01:25:48;5.90;99.90
21176;DHT22;10746;50.178;8.186;2023-02-03T01:28:15;5.90;99.90
21176;DHT22;10746;50.178;8.186;2023-02-03T01:30:43;5.90;99.90
21176;DHT22;10746;50.178;8.186;2023-02-03T01:33:10;5.90;99.90
21176;DHT22;10746;50.178;8.186;2023-02-03T01:35:36;5.90;99.90
21176;DHT22;10746;50.178;8.186;2023-02-03T01:38:03;6.00;99.90
21176;DHT22;10746;50.178;8.186;2023-02-03T01:40:30;6.00;99.90
21176;DHT22;10746;50.178;8.186;2023-02-03T01:42:57;6.00;99.90
21176;DHT22;10746;50.178;8.186;2023-02-03T01:45:24;6.00;99.90
21176;DHT22;10746;50.178;8.186;2023-02-03T01:47:54;6.00;99.90
21176;DHT22;10746;50.178;8.186;2023-02-03T01:50:24;6.00;99.90
21176;DHT22;10746;50.178;8.186;2023-02-03T01:52:55;6.00;99.90
21176;DHT22;10746;50.178;8.186;2023-02-03T01:55:27;6.00;99.90
21176;DHT22;10746;50.178;8.186;2023-02-03T01:57:59;5.90;99.90
21176;DHT22;10746;50.178;8.186;2023-02-03T02:00:28;6.00;99.90
21176;DHT22;10746;50.178;8.186;2023-02-03T02:02:58;5.90;99.90
21176;DHT22;10746;50.178;8.186;2023-02-03T02:05:30;6.00;99.90
21176;DHT22;10746;50.178;8.186;2023-02-03T02:07:59;6.00;99.90
21176;DHT22;10746;50.178;8.186;2023-02-03T02:10:27;6.00;99.90
21176;DHT22;10746;50.178;8.186;2023-02-03T02:12:56;6.00;99.90
21176;DHT22;10746;50.178;8.186;2023-02-03T02:15:31;6.00;99.90
21176;DHT22;10746;50.178;8.186;2023-02-03T02:18:24;6.00;99.90
21176;DHT22;10746;50.178;8.186;2023-02-03T02:21:15;6.10;99.90
21176;DHT22;10746;50.178;8.186;2023-02-03T02:24:06;6.10;99.90
21176;DHT22;10746;50.178;8.186;2023-02-03T02:26:52;6.10;99.90
21176;DHT22;10746;50.178;8.186;2023-02-03T02:32:25;6.10;99.90
21176;DHT22;10746;50.178;8.186;2023-02-03T02:35:00;6.10;99.90
21176;DHT22;10746;50.178;8.186;2023-02-03T02:37:36;6.10;99.90
21176;DHT22;10746;50.178;8.186;2023-02-03T02:40:12;6.10;99.90
21176;DHT22;10746;50.178;8.186;2023-02-03T02:42:48;6.10;99.90
21176;DHT22;10746;50.178;8.186;2023-02-03T02:45:24;6.00;99.90
21176;DHT22;10746;50.178;8.186;2023-02-03T02:47:56;6.10;99.90
21176;DHT22;10746;50.178;8.186;2023-02-03T02:50:29;6.10;99.90
21176;DHT22;10746;50.178;8.186;2023-02-03T02:52:57;6.10;99.90
21176;DHT22;10746;50.178;8.186;2023-02-03T02:55:27;6.20;99.90
21176;DHT22;10746;50.178;8.186;2023-02-03T02:58:00;6.20;99.90
21176;DHT22;10746;50.178;8.186;2023-02-03T03:00:29;6.10;99.90
21176;DHT22;10746;50.178;8.186;2023-02-03T03:03:10;6.20;99.90
21176;DHT22;10746;50.178;8.186;2023-02-03T03:05:38;6.20;99.90
21176;DHT22;10746;50.178;8.186;2023-02-03T03:08:08;6.10;99.90
21176;DHT22;10746;50.178;8.186;2023-02-03T03:10:37;6.10;99.90
21176;DHT22;10746;50.178;8.186;2023-02-03T03:13:08;6.10;99.90
21176;DHT22;10746;50.178;8.186;2023-02-03T03:15:37;6.10;99.90
21176;DHT22;10746;50.178;8.186;2023-02-03T03:18:10;6.10;99.90
21176;DHT22;10746;50.178;8.186;2023-02-03T03:20:40;6.20;99.90
21176;DHT22;10746;50.178;8.186;2023-02-03T03:23:12;6.20;99.90
21176;DHT22;10746;50.178;8.186;2023-02-03T03:25:43;6.20;99.90
21176;DHT22;10746;50.178;8.186;2023-02-03T03:28:14;6.30;99.90
21176;DHT22;10746;50.178;8.186;2023-02-03T03:30:41;6.30;99.90
21176;DHT22;10746;50.178;8.186;2023-02-03T03:33:10;6.30;99.90
21176;DHT22;10746;50.178;8.186;2023-02-03T03:35:41;6.30;99.90
21176;DHT22;10746;50.178;8.186;2023-02-03T03:38:17;6.30;99.90
21176;DHT22;10746;50.178;8.186;2023-02-03T03:40:50;6.30;99.90
21176;DHT22;10746;50.178;8.186;2023-02-03T03:43:20;6.30;99.90
21176;DHT22;10746;50.178;8.186;2023-02-03T03:45:53;6.30;99.90
21176;DHT22;10746;50.178;8.186;2023-02-03T03:48:26;6.30;99.90
21176;DHT22;10746;50.178;8.186;2023-02-03T03:50:57;6.30;99.90
21176;DHT22;10746;50.178;8.186;2023-02-03T03:53:28;6.20;99.90
21176;DHT22;10746;50.178;8.186;2023-02-03T03:55:56;6.20;99.90
21176;DHT22;10746;50.178;8.186;2023-02-03T03:58:28;6.20;99.90
21176;DHT22;10746;50.178;8.186;2023-02-03T04:01:00;6.20;99.90
21176;DHT22;10746;50.178;8.186;2023-02-03T04:03:32;6.10;99.90
21176;DHT22;10746;50.178;8.186;2023-02-03T04:06:00;6.10;99.90
21176;DHT22;10746;50.178;8.186;2023-02-03T04:08:27;6.10;99.90
21176;DHT22;10746;50.178;8.186;2023-02-03T04:10:54;6.10;99.90
21176;DHT22;10746;50.178;8.186;2023-02-03T04:13:21;6.10;99.90
21176;DHT22;10746;50.178;8.186;2023-02-03T04:15:48;6.10;99.90
21176;DHT22;10746;50.178;8.186;2023-02-03T04:18:15;6.10;99.90
21176;DHT22;10746;50.178;8.186;2023-02-03T04:20:43;6.10;99.90
21176;DHT22;10746;50.178;8.186;2023-02-03T04:23:10;6.00;99.90
21176;DHT22;10746;50.178;8.186;2023-02-03T04:25:37;5.90;99.90
21176;DHT22;10746;50.178;8.186;2023-02-03T04:28:04;5.90;99.90
21176;DHT22;10746;50.178;8.186;2023-02-03T04:30:31;5.90;99.90
21176;DHT22;10746;50.178;8.186;2023-02-03T04:32:58;5.90;99.90
21176;DHT22;10746;50.178;8.186;2023-02-03T04:35:25;5.90;99.90
21176;DHT22;10746;50.178;8.186;2023-02-03T04:37:53;5.80;99.90
21176;DHT22;10746;50.178;8.186;2023-02-03T04:40:20;5.80;99.90
21176;DHT22;10746;50.178;8.186;2023-02-03T04:42:47;5.80;99.90
21176;DHT22;10746;50.178;8.186;2023-02-03T04:45:13;5.80;99.90
21176;DHT22;10746;50.178;8.186;2023-02-03T04:47:40;5.80;99.90
21176;DHT22;10746;50.178;8.186;2023-02-03T04:50:07;5.90;99.90
21176;DHT22;10746;50.178;8.186;2023-02-03T04:52:34;5.90;99.90
21176;DHT22;10746;50.178;8.186;2023-02-03T04:55:03;5.90;99.90
21176;DHT22;10746;50.178;8.186;2023-02-03T04:57:30;6.00;99.90
21176;DHT22;10746;50.178;8.186;2023-02-03T04:59:57;6.10;99.90
21176;DHT22;10746;50.178;8.186;2023-02-03T05:02:23;6.10;99.90
21176;DHT22;10746;50.178;8.186;2023-02-03T05:04:50;6.00;99.90
21176;DHT22;10746;50.178;8.186;2023-02-03T05:07:17;6.00;99.90
21176;DHT22;10746;50.178;8.186;2023-02-03T05:09:44;6.10;99.90
21176;DHT22;10746;50.178;8.186;2023-02-03T05:12:12;6.10;99.90
21176;DHT22;10746;50.178;8.186;2023-02-03T05:14:39;6.10;99.90
21176;DHT22;10746;50.178;8.186;2023-02-03T05:17:05;6.10;99.90
21176;DHT22;10746;50.178;8.186;2023-02-03T05:19:32;6.10;99.90
21176;DHT22;10746;50.178;8.186;2023-02-03T05:21:59;6.00;99.90
21176;DHT22;10746;50.178;8.186;2023-02-03T05:24:26;6.10;99.90
21176;DHT22;10746;50.178;8.186;2023-02-03T05:26:53;6.10;99.90
21176;DHT22;10746;50.178;8.186;2023-02-03T05:29:21;6.10;99.90
21176;DHT22;10746;50.178;8.186;2023-02-03T05:31:47;6.10;99.90
21176;DHT22;10746;50.178;8.186;2023-02-03T05:34:14;6.10;99.90
21176;DHT22;10746;50.178;8.186;2023-02-03T05:36:41;6.10;99.90
21176;DHT22;10746;50.178;8.186;2023-02-03T05:39:08;6.10;99.90
21176;DHT22;10746;50.178;8.186;2023-02-03T05:41:34;6.10;99.90
21176;DHT22;10746;50.178;8.186;2023-02-03T05:44:20;6.10;99.90
21176;DHT22;10746;50.178;8.186;2023-02-03T05:46:48;6.20;99.90
21176;DHT22;10746;50.178;8.186;2023-02-03T05:49:15;6.20;99.90
21176;DHT22;10746;50.178;8.186;2023-02-03T05:51:42;6.20;99.90
21176;DHT22;10746;50.178;8.186;2023-02-03T05:54:09;6.20;99.90
21176;DHT22;10746;50.178;8.186;2023-02-03T05:56:36;6.30;99.90
21176;DHT22;10746;50.178;8.186;2023-02-03T05:59:03;6.20;99.90
21176;DHT22;10746;50.178;8.186;2023-02-03T06:01:32;6.30;99.90
21176;DHT22;10746;50.178;8.186;2023-02-03T06:03:59;6.20;99.90
21176;DHT22;10746;50.178;8.186;2023-02-03T06:06:26;6.30;99.90
21176;DHT22;10746;50.178;8.186;2023-02-03T06:08:57;6.30;99.90
21176;DHT22;10746;50.178;8.186;2023-02-03T06:11:24;6.30;99.90
21176;DHT22;10746;50.178;8.186;2023-02-03T06:13:51;6.30;99.90
21176;DHT22;10746;50.178;8.186;2023-02-03T06:16:18;6.30;99.90
21176;DHT22;10746;50.178;8.186;2023-02-03T06:18:46;6.40;99.90
21176;DHT22;10746;50.178;8.186;2023-02-03T06:21:13;6.30;99.90
21176;DHT22;10746;50.178;8.186;2023-02-03T06:23:40;6.30;99.90
21176;DHT22;10746;50.178;8.186;2023-02-03T06:26:06;6.30;99.90
21176;DHT22;10746;50.178;8.186;2023-02-03T06:28:33;6.30;99.90
21176;DHT22;10746;50.178;8.186;2023-02-03T06:31:02;6.30;99.90
21176;DHT22;10746;50.178;8.186;2023-02-03T06:33:29;6.30;99.90
21176;DHT22;10746;50.178;8.186;2023-02-03T06:35:57;6.30;99.90
21176;DHT22;10746;50.178;8.186;2023-02-03T06:38:24;6.30;99.90
21176;DHT22;10746;50.178;8.186;2023-02-03T06:40:51;6.30;99.90
21176;DHT22;10746;50.178;8.186;2023-02-03T06:43:18;6.30;99.90
21176;DHT22;10746;50.178;8.186;2023-02-03T06:45:45;6.30;99.90
21176;DHT22;10746;50.178;8.186;2023-02-03T06:48:13;6.40;99.90
21176;DHT22;10746;50.178;8.186;2023-02-03T06:50:40;6.30;99.90
21176;DHT22;10746;50.178;8.186;2023-02-03T06:53:08;6.30;99.90
21176;DHT22;10746;50.178;8.186;2023-02-03T06:55:35;6.30;99.90
21176;DHT22;10746;50.178;8.186;2023-02-03T06:58:01;6.40;99.90
21176;DHT22;10746;50.178;8.186;2023-02-03T07:00:28;6.40;99.90
21176;DHT22;10746;50.178;8.186;2023-02-03T07:02:56;6.40;99.90
21176;DHT22;10746;50.178;8.186;2023-02-03T07:05:24;6.30;99.90
21176;DHT22;10746;50.178;8.186;2023-02-03T07:07:52;6.40;99.90
21176;DHT22;10746;50.178;8.186;2023-02-03T07:10:20;6.40;99.90
21176;DHT22;10746;50.178;8.186;2023-02-03T07:12:47;6.40;99.90
21176;DHT22;10746;50.178;8.186;2023-02-03T07:15:15;6.40;99.90
21176;DHT22;10746;50.178;8.186;2023-02-03T07:17:42;6.40;99.90
21176;DHT22;10746;50.178;8.186;2023-02-03T07:20:09;6.40;99.90
21176;DHT22;10746;50.178;8.186;2023-02-03T07:22:36;6.40;99.90
21176;DHT22;10746;50.178;8.186;2023-02-03T07:25:07;6.40;99.90
21176;DHT22;10746;50.178;8.186;2023-02-03T07:27:35;6.40;99.90
21176;DHT22;10746;50.178;8.186;2023-02-03T07:30:02;6.40;99.90
21176;DHT22;10746;50.178;8.186;2023-02-03T07:32:29;6.30;99.90
21176;DHT22;10746;50.178;8.186;2023-02-03T07:34:56;6.40;99.90
21176;DHT22;10746;50.178;8.186;2023-02-03T07:37:25;6.30;99.90
21176;DHT22;10746;50.178;8.186;2023-02-03T07:39:52;6.40;99.90
21176;DHT22;10746;50.178;8.186;2023-02-03T07:42:19;6.40;99.90
21176;DHT22;10746;50.178;8.186;2023-02-03T07:44:47;6.50;99.90
21176;DHT22;10746;50.178;8.186;2023-02-03T07:47:14;6.40;99.90
21176;DHT22;10746;50.178;8.186;2023-02-03T07:49:40;6.40;99.90
21176;DHT22;10746;50.178;8.186;2023-02-03T07:52:08;6.40;99.90
21176;DHT22;10746;50.178;8.186;2023-02-03T07:54:34;6.40;99.90
21176;DHT22;10746;50.178;8.186;2023-02-03T07:57:01;6.50;99.90
21176;DHT22;10746;50.178;8.186;2023-02-03T07:59:28;6.50;99.90
21176;DHT22;10746;50.178;8.186;2023-02-03T08:01:56;6.50;99.90
21176;DHT22;10746;50.178;8.186;2023-02-03T08:04:23;6.50;99.90
21176;DHT22;10746;50.178;8.186;2023-02-03T08:06:50;6.50;99.90
21176;DHT22;10746;50.178;8.186;2023-02-03T08:09:16;6.50;99.90
21176;DHT22;10746;50.178;8.186;2023-02-03T08:11:43;6.50;99.90
21176;DHT22;10746;50.178;8.186;2023-02-03T08:14:10;6.50;99.90
21176;DHT22;10746;50.178;8.186;2023-02-03T08:16:37;6.50;99.90
21176;DHT22;10746;50.178;8.186;2023-02-03T08:19:05;6.50;99.90
21176;DHT22;10746;50.178;8.186;2023-02-03T08:21:32;6.50;99.90
21176;DHT22;10746;50.178;8.186;2023-02-03T08:23:58;6.50;99.90
21176;DHT22;10746;50.178;8.186;2023-02-03T08:26:25;6.60;99.90
21176;DHT22;10746;50.178;8.186;2023-02-03T08:28:52;6.70;99.90
21176;DHT22;10746;50.178;8.186;2023-02-03T08:31:19;6.70;99.90
21176;DHT22;10746;50.178;8.186;2023-02-03T08:33:45;6.70;99.90
21176;DHT22;10746;50.178;8.186;2023-02-03T08:36:14;6.80;99.90
21176;DHT22;10746;50.178;8.186;2023-02-03T08:38:40;6.70;99.90
21176;DHT22;10746;50.178;8.186;2023-02-03T08:41:08;6.70;99.90
21176;DHT22;10746;50.178;8.186;2023-02-03T08:43:35;6.70;99.90
21176;DHT22;10746;50.178;8.186;2023-02-03T08:46:03;6.70;99.90
21176;DHT22;10746;50.178;8.186;2023-02-03T08:48:30;6.80;99.90
21176;DHT22;10746;50.178;8.186;2023-02-03T08:50:57;6.70;99.90
21176;DHT22;10746;50.178;8.186;2023-02-03T08:53:26;6.80;99.90
21176;DHT22;10746;50.178;8.186;2023-02-03T08:55:53;6.80;99.90
21176;DHT22;10746;50.178;8.186;2023-02-03T08:58:20;6.80;99.90
21176;DHT22;10746;50.178;8.186;2023-02-03T09:00:47;6.90;99.90
21176;DHT22;10746;50.178;8.186;2023-02-03T09:03:14;6.90;99.90
21176;DHT22;10746;50.178;8.186;2023-02-03T09:05:41;6.90;99.90
21176;DHT22;10746;50.178;8.186;2023-02-03T09:08:08;6.90;99.90
21176;DHT22;10746;50.178;8.186;2023-02-03T09:10:36;6.90;99.90
21176;DHT22;10746;50.178;8.186;2023-02-03T09:13:03;6.90;99.90
21176;DHT22;10746;50.178;8.186;2023-02-03T09:15:30;6.90;99.90
21176;DHT22;10746;50.178;8.186;2023-02-03T09:17:57;7.00;99.90
21176;DHT22;10746;50.178;8.186;2023-02-03T09:20:23;7.00;99.90
21176;DHT22;10746;50.178;8.186;2023-02-03T09:22:50;7.00;99.90
21176;DHT22;10746;50.178;8.186;2023-02-03T09:25:19;7.00;99.90
21176;DHT22;10746;50.178;8.186;2023-02-03T09:27:47;7.00;99.90
21176;DHT22;10746;50.178;8.186;2023-02-03T09:30:14;7.00;99.90
21176;DHT22;10746;50.178;8.186;2023-02-03T09:32:41;7.10;99.90
21176;DHT22;10746;50.178;8.186;2023-02-03T09:35:08;7.10;99.90
21176;DHT22;10746;50.178;8.186;2023-02-03T09:37:35;7.10;99.90
21176;DHT22;10746;50.178;8.186;2023-02-03T09:40:02;7.20;99.90
21176;DHT22;10746;50.178;8.186;2023-02-03T09:42:54;7.20;99.90
21176;DHT22;10746;50.178;8.186;2023-02-03T09:45:26;7.20;99.90
21176;DHT22;10746;50.178;8.186;2023-02-03T09:47:57;7.10;99.90
21176;DHT22;10746;50.178;8.186;2023-02-03T09:50:27;7.10;99.90
21176;DHT22;10746;50.178;8.186;2023-02-03T09:52:56;7.10;99.90
21176;DHT22;10746;50.178;8.186;2023-02-03T09:55:29;7.10;99.90
21176;DHT22;10746;50.178;8.186;2023-02-03T09:58:03;7.10;99.90
21176;DHT22;10746;50.178;8.186;2023-02-03T10:00:35;7.10;99.90
21176;DHT22;10746;50.178;8.186;2023-02-03T10:03:06;7.10;99.90
21176;DHT22;10746;50.178;8.186;2023-02-03T10:05:49;7.10;99.90
21176;DHT22;10746;50.178;8.186;2023-02-03T10:08:27;7.10;99.90
21176;DHT22;10746;50.178;8.186;2023-02-03T10:11:05;7.10;99.90
21176;DHT22;10746;50.178;8.186;2023-02-03T10:13:46;7.10;99.90
21176;DHT22;10746;50.178;8.186;2023-02-03T10:16:29;7.10;99.90
21176;DHT22;10746;50.178;8.186;2023-02-03T10:19:01;7.10;99.90
21176;DHT22;10746;50.178;8.186;2023-02-03T10:21:35;7.10;99.90
21176;DHT22;10746;50.178;8.186;2023-02-03T10:24:06;7.20;99.90
21176;DHT22;10746;50.178;8.186;2023-02-03T10:26:37;7.10;99.90
21176;DHT22;10746;50.178;8.186;2023-02-03T10:29:11;7.10;99.90
21176;DHT22;10746;50.178;8.186;2023-02-03T10:31:43;7.10;99.90
21176;DHT22;10746;50.178;8.186;2023-02-03T10:34:13;7.00;99.90
21176;DHT22;10746;50.178;8.186;2023-02-03T10:36:48;7.00;99.90
21176;DHT22;10746;50.178;8.186;2023-02-03T10:39:23;7.00;99.90
21176;DHT22;10746;50.178;8.186;2023-02-03T10:41:53;7.00;99.90
21176;DHT22;10746;50.178;8.186;2023-02-03T10:44:26;7.00;99.90
21176;DHT22;10746;50.178;8.186;2023-02-03T10:46:54;7.10;99.90
21176;DHT22;10746;50.178;8.186;2023-02-03T10:49:21;7.10;99.90
21176;DHT22;10746;50.178;8.186;2023-02-03T10:51:50;7.00;99.90
21176;DHT22;10746;50.178;8.186;2023-02-03T10:54:27;7.00;99.90
21176;DHT22;10746;50.178;8.186;2023-02-03T10:56:57;6.90;99.90
21176;DHT22;10746;50.178;8.186;2023-02-03T10:59:30;6.80;99.90
21176;DHT22;10746;50.178;8.186;2023-02-03T11:01:58;6.60;99.90
21176;DHT22;10746;50.178;8.186;2023-02-03T11:04:27;6.60;99.90
21176;DHT22;10746;50.178;8.186;2023-02-03T11:06:56;6.50;99.90
21176;DHT22;10746;50.178;8.186;2023-02-03T11:09:40;6.50;99.90
21176;DHT22;10746;50.178;8.186;2023-02-03T11:12:12;6.40;99.90
21176;DHT22;10746;50.178;8.186;2023-02-03T11:14:46;6.30;99.90
21176;DHT22;10746;50.178;8.186;2023-02-03T11:17:17;6.30;99.90
21176;DHT22;10746;50.178;8.186;2023-02-03T11:19:48;6.20;99.90
21176;DHT22;10746;50.178;8.186;2023-02-03T11:22:27;6.20;99.90
21176;DHT22;10746;50.178;8.186;2023-02-03T11:24:54;6.20;99.90
21176;DHT22;10746;50.178;8.186;2023-02-03T11:27:22;6.10;99.90
21176;DHT22;10746;50.178;8.186;2023-02-03T11:30:05;6.10;99.90
21176;DHT22;10746;50.178;8.186;2023-02-03T11:32:36;6.20;99.90
21176;DHT22;10746;50.178;8.186;2023-02-03T11:35:15;6.20;99.90
21176;DHT22;10746;50.178;8.186;2023-02-03T11:37:43;6.20;99.90
21176;DHT22;10746;50.178;8.186;2023-02-03T11:40:26;6.20;99.90
21176;DHT22;10746;50.178;8.186;2023-02-03T11:43:01;6.30;99.90
21176;DHT22;10746;50.178;8.186;2023-02-03T11:45:36;6.30;99.90
21176;DHT22;10746;50.178;8.186;2023-02-03T11:48:21;6.30;99.90
21176;DHT22;10746;50.178;8.186;2023-02-03T11:50:57;6.40;99.90
21176;DHT22;10746;50.178;8.186;2023-02-03T11:53:29;6.30;99.90
21176;DHT22;10746;50.178;8.186;2023-02-03T11:56:21;6.40;99.90
21176;DHT22;10746;50.178;8.186;2023-02-03T11:59:17;6.40;99.90
21176;DHT22;10746;50.178;8.186;2023-02-03T12:02:04;6.30;99.90
21176;DHT22;10746;50.178;8.186;2023-02-03T12:04:46;6.30;99.90
21176;DHT22;10746;50.178;8.186;2023-02-03T12:07:31;6.40;99.90
21176;DHT22;10746;50.178;8.186;2023-02-03T12:10:11;6.40;99.90
21176;DHT22;10746;50.178;8.186;2023-02-03T12:12:49;6.30;99.90
21176;DHT22;10746;50.178;8.186;2023-02-03T12:15:35;6.40;99.90
21176;DHT22;10746;50.178;8.186;2023-02-03T12:18:14;6.40;99.90
21176;DHT22;10746;50.178;8.186;2023-02-03T12:20:53;6.40;99.90
21176;DHT22;10746;50.178;8.186;2023-02-03T12:23:30;6.50;99.90
21176;DHT22;10746;50.178;8.186;2023-02-03T12:26:09;6.50;99.90
21176;DHT22;10746;50.178;8.186;2023-02-03T12:28:44;6.50;99.90
21176;DHT22;10746;50.178;8.186;2023-02-03T12:31:16;6.50;99.90
21176;DHT22;10746;50.178;8.186;2023-02-03T12:33:51;6.50;99.90
21176;DHT22;10746;50.178;8.186;2023-02-03T12:36:22;6.60;99.90
21176;DHT22;10746;50.178;8.186;2023-02-03T12:38:55;6.60;99.90
21176;DHT22;10746;50.178;8.186;2023-02-03T12:41:26;6.50;99.90
21176;DHT22;10746;50.178;8.186;2023-02-03T12:43:58;6.50;99.90
21176;DHT22;10746;50.178;8.186;2023-02-03T12:46:28;6.60;99.90
21176;DHT22;10746;50.178;8.186;2023-02-03T12:48:59;6.60;99.90
21176;DHT22;10746;50.178;8.186;2023-02-03T12:51:34;6.60;99.90
21176;DHT22;10746;50.178;8.186;2023-02-03T12:54:10;6.70;99.90
21176;DHT22;10746;50.178;8.186;2023-02-03T12:56:42;6.70;99.90
21176;DHT22;10746;50.178;8.186;2023-02-03T12:59:13;6.70;99.90
21176;DHT22;10746;50.178;8.186;2023-02-03T13:01:46;6.70;99.90
21176;DHT22;10746;50.178;8.186;2023-02-03T13:04:22;6.70;99.90
21176;DHT22;10746;50.178;8.186;2023-02-03T13:06:55;6.80;99.90
21176;DHT22;10746;50.178;8.186;2023-02-03T13:09:27;6.80;99.90
21176;DHT22;10746;50.178;8.186;2023-02-03T13:12:00;6.80;99.90
21176;DHT22;10746;50.178;8.186;2023-02-03T13:14:33;6.80;99.90
21176;DHT22;10746;50.178;8.186;2023-02-03T13:17:07;6.80;99.90
21176;DHT22;10746;50.178;8.186;2023-02-03T13:19:42;6.80;99.90
21176;DHT22;10746;50.178;8.186;2023-02-03T13:22:11;6.90;99.90
21176;DHT22;10746;50.178;8.186;2023-02-03T13:24:42;6.90;99.90
21176;DHT22;10746;50.178;8.186;2023-02-03T13:27:41;6.90;99.90
21176;DHT22;10746;50.178;8.186;2023-02-03T13:33:46;6.80;99.90
21176;DHT22;10746;50.178;8.186;2023-02-03T13:36:31;6.70;99.90
21176;DHT22;10746;50.178;8.186;2023-02-03T13:39:45;6.70;99.90
21176;DHT22;10746;50.178;8.186;2023-02-03T13:42:21;6.70;99.90
21176;DHT22;10746;50.178;8.186;2023-02-03T13:44:52;6.60;99.90
21176;DHT22;10746;50.178;8.186;2023-02-03T13:47:23;6.60;99.90
21176;DHT22;10746;50.178;8.186;2023-02-03T13:49:55;6.70;99.90
21176;DHT22;10746;50.178;8.186;2023-02-03T13:52:28;6.70;99.90
21176;DHT22;10746;50.178;8.186;2023-02-03T13:54:58;6.70;99.90
21176;DHT22;10746;50.178;8.186;2023-02-03T13:57:33;6.70;99.90
21176;DHT22;10746;50.178;8.186;2023-02-03T14:00:02;6.70;99.90
21176;DHT22;10746;50.178;8.186;2023-02-03T14:02:41;6.70;99.90
21176;DHT22;10746;50.178;8.186;2023-02-03T14:05:42;6.80;99.90
21176;DHT22;10746;50.178;8.186;2023-02-03T14:11:37;6.80;99.90
21176;DHT22;10746;50.178;8.186;2023-02-03T14:17:19;6.80;99.90
21176;DHT22;10746;50.178;8.186;2023-02-03T14:23:11;6.70;99.90
21176;DHT22;10746;50.178;8.186;2023-02-03T14:25:41;6.70;99.90
21176;DHT22;10746;50.178;8.186;2023-02-03T14:28:12;6.70;99.90
21176;DHT22;10746;50.178;8.186;2023-02-03T14:31:01;6.70;99.90
21176;DHT22;10746;50.178;8.186;2023-02-03T14:33:51;6.70;99.90
21176;DHT22;10746;50.178;8.186;2023-02-03T14:36:33;6.80;99.90
21176;DHT22;10746;50.178;8.186;2023-02-03T14:39:19;6.80;99.90
21176;DHT22;10746;50.178;8.186;2023-02-03T14:41:55;6.80;99.90
21176;DHT22;10746;50.178;8.186;2023-02-03T14:44:32;6.80;99.90
21176;DHT22;10746;50.178;8.186;2023-02-03T14:47:10;6.90;99.90
21176;DHT22;10746;50.178;8.186;2023-02-03T14:49:50;6.90;99.90
21176;DHT22;10746;50.178;8.186;2023-02-03T14:52:31;6.90;99.90
21176;DHT22;10746;50.178;8.186;2023-02-03T14:55:23;6.90;99.90
21176;DHT22;10746;50.178;8.186;2023-02-03T14:57:57;6.90;99.90
21176;DHT22;10746;50.178;8.186;2023-02-03T15:00:29;6.90;99.90
21176;DHT22;10746;50.178;8.186;2023-02-03T15:03:18;7.00;99.90
21176;DHT22;10746;50.178;8.186;2023-02-03T15:05:48;7.00;99.90
21176;DHT22;10746;50.178;8.186;2023-02-03T15:11:25;7.10;99.90
21176;DHT22;10746;50.178;8.186;2023-02-03T15:13:52;7.10;99.90
21176;DHT22;10746;50.178;8.186;2023-02-03T15:16:21;7.10;99.90
21176;DHT22;10746;50.178;8.186;2023-02-03T15:18:54;7.10;99.90
21176;DHT22;10746;50.178;8.186;2023-02-03T15:21:22;7.10;99.90
21176;DHT22;10746;50.178;8.186;2023-02-03T15:23:49;7.10;99.90
21176;DHT22;10746;50.178;8.186;2023-02-03T15:26:18;7.10;99.90
21176;DHT22;10746;50.178;8.186;2023-02-03T15:28:54;7.10;99.90
21176;DHT22;10746;50.178;8.186;2023-02-03T15:31:24;7.10;99.90
21176;DHT22;10746;50.178;8.186;2023-02-03T15:33:53;7.10;99.90
21176;DHT22;10746;50.178;8.186;2023-02-03T15:36:24;7.10;99.90
21176;DHT22;10746;50.178;8.186;2023-02-03T15:38:59;7.10;99.90
21176;DHT22;10746;50.178;8.186;2023-02-03T15:41:29;7.10;99.90
21176;DHT22;10746;50.178;8.186;2023-02-03T15:44:03;7.10;99.90
21176;DHT22;10746;50.178;8.186;2023-02-03T15:46:36;7.10;99.90
21176;DHT22;10746;50.178;8.186;2023-02-03T15:49:10;7.10;99.90
21176;DHT22;10746;50.178;8.186;2023-02-03T15:51:40;7.10;99.90
21176;DHT22;10746;50.178;8.186;2023-02-03T15:54:13;7.10;99.90
21176;DHT22;10746;50.178;8.186;2023-02-03T15:56:45;7.10;99.90
21176;DHT22;10746;50.178;8.186;2023-02-03T15:59:23;7.10;99.90
21176;DHT22;10746;50.178;8.186;2023-02-03T16:01:50;7.10;99.90
21176;DHT22;10746;50.178;8.186;2023-02-03T16:04:18;7.10;99.90
21176;DHT22;10746;50.178;8.186;2023-02-03T16:06:47;7.20;99.90
21176;DHT22;10746;50.178;8.186;2023-02-03T16:09:27;7.20;99.90
21176;DHT22;10746;50.178;8.186;2023-02-03T16:12:15;7.20;99.90
21176;DHT22;10746;50.178;8.186;2023-02-03T16:14:45;7.10;99.90
21176;DHT22;10746;50.178;8.186;2023-02-03T16:17:27;7.10;99.90
21176;DHT22;10746;50.178;8.186;2023-02-03T16:20:22;7.10;99.90
21176;DHT22;10746;50.178;8.186;2023-02-03T16:23:04;7.10;99.90
21176;DHT22;10746;50.178;8.186;2023-02-03T16:25:33;7.00;99.90
21176;DHT22;10746;50.178;8.186;2023-02-03T16:28:03;7.00;99.90
21176;DHT22;10746;50.178;8.186;2023-02-03T16:30:54;7.00;99.90